sensor_id;sensor_type;location;lat;lon;timestamp;temperature;humidity
14370;DHT22;7268;50.792;0.252;2023-09-08T00:02:25;17.20;99.90
14370;DHT22;7268;50.792;0.252;2023-09-08T00:04:53;17.30;99.90
14370;DHT22;7268;50.792;0.252;2023-09-08T00:07:20;17.20;99.90
14370;DHT22;7268;50.792;0.252;2023-09-08T00:09:47;17.20;99.90
14370;DHT22;7268;50.792;0.252;2023-09-08T00:12:14;17.30;99.90
14370;DHT22;7268;50.792;0.252;2023-09-08T00:14:41;17.10;99.90
14370;DHT22;7268;50.792;0.252;2023-09-08T00:17:08;17.10;99.90
14370;DHT22;7268;50.792;0.252;2023-09-08T00:19:35;17.00;99.90
14370;DHT22;7268;50.792;0.252;2023-09-08T00:22:03;17.00;99.90
14370;DHT22;7268;50.792;0.252;2023-09-08T00:24:33;17.00;99.90
14370;DHT22;7268;50.792;0.252;2023-09-08T00:27:00;17.00;99.90
14370;DHT22;7268;50.792;0.252;2023-09-08T00:29:27;17.00;99.90
14370;DHT22;7268;50.792;0.252;2023-09-08T00:31:54;17.00;99.90
14370;DHT22;7268;50.792;0.252;2023-09-08T00:34:21;16.90;99.90
14370;DHT22;7268;50.792;0.252;2023-09-08T00:36:48;16.90;99.90
14370;DHT22;7268;50.792;0.252;2023-09-08T00:39:15;16.90;99.90
14370;DHT22;7268;50.792;0.252;2023-09-08T00:41:42;16.90;99.90
14370;DHT22;7268;50.792;0.252;2023-09-08T00:44:08;16.90;99.90
14370;DHT22;7268;50.792;0.252;2023-09-08T00:46:36;16.90;99.90
14370;DHT22;7268;50.792;0.252;2023-09-08T00:49:03;16.90;99.90
14370;DHT22;7268;50.792;0.252;2023-09-08T00:51:30;16.90;99.90
14370;DHT22;7268;50.792;0.252;2023-09-08T00:53:57;16.90;99.90
14370;DHT22;7268;50.792;0.252;2023-09-08T00:56:24;16.90;99.90
14370;DHT22;7268;50.792;0.252;2023-09-08T00:58:51;16.90;99.90
14370;DHT22;7268;50.792;0.252;2023-09-08T01:01:18;16.90;99.90
14370;DHT22;7268;50.792;0.252;2023-09-08T01:03:46;16.90;99.90
14370;DHT22;7268;50.792;0.252;2023-09-08T01:06:13;16.90;99.90
14370;DHT22;7268;50.792;0.252;2023-09-08T01:08:41;16.90;99.90
14370;DHT22;7268;50.792;0.252;2023-09-08T01:11:10;17.00;99.90
14370;DHT22;7268;50.792;0.252;2023-09-08T01:13:37;17.00;99.90
14370;DHT22;7268;50.792;0.252;2023-09-08T01:16:04;17.00;99.90
14370;DHT22;7268;50.792;0.252;2023-09-08T01:18:31;17.00;99.90
14370;DHT22;7268;50.792;0.252;2023-09-08T01:24:22;17.10;99.90
14370;DHT22;7268;50.792;0.252;2023-09-08T01:26:55;17.10;99.90
14370;DHT22;7268;50.792;0.252;2023-09-08T01:29:22;17.10;99.90
14370;DHT22;7268;50.792;0.252;2023-09-08T01:31:52;17.20;99.90
14370;DHT22;7268;50.792;0.252;2023-09-08T01:34:19;17.10;99.90
14370;DHT22;7268;50.792;0.252;2023-09-08T01:36:46;17.20;99.90
14370;DHT22;7268;50.792;0.252;2023-09-08T01:39:13;17.10;99.90
14370;DHT22;7268;50.792;0.252;2023-09-08T01:41:40;17.10;99.90
14370;DHT22;7268;50.792;0.252;2023-09-08T01:44:07;17.10;99.90
14370;DHT22;7268;50.792;0.252;2023-09-08T01:46:37;17.10;99.90
14370;DHT22;7268;50.792;0.252;2023-09-08T01:49:05;17.10;99.90
14370;DHT22;7268;50.792;0.252;2023-09-08T01:51:32;17.10;99.90
14370;DHT22;7268;50.792;0.252;2023-09-08T01:53:59;17.10;99.90
14370;DHT22;7268;50.792;0.252;2023-09-08T01:56:26;17.10;99.90
14370;DHT22;7268;50.792;0.252;2023-09-08T01:58:53;17.10;99.90
14370;DHT22;7268;50.792;0.252;2023-09-08T02:01:19;17.20;99.90
14370;DHT22;7268;50.792;0.252;2023-09-08T02:03:46;17.20;99.90
14370;DHT22;7268;50.792;0.252;2023-09-08T02:06:13;17.10;99.90
14370;DHT22;7268;50.792;0.252;2023-09-08T02:08:40;17.10;99.90
14370;DHT22;7268;50.792;0.252;2023-09-08T02:11:07;17.10;99.90
14370;DHT22;7268;50.792;0.252;2023-09-08T02:13:34;17.10;99.90
14370;DHT22;7268;50.792;0.252;2023-09-08T02:16:01;17.10;99.90
14370;DHT22;7268;50.792;0.252;2023-09-08T02:18:28;17.10;99.90
14370;DHT22;7268;50.792;0.252;2023-09-08T02:20:55;17.10;99.90
14370;DHT22;7268;50.792;0.252;2023-09-08T02:23:22;17.10;99.90
14370;DHT22;7268;50.792;0.252;2023-09-08T02:25:49;17.20;99.90
14370;DHT22;7268;50.792;0.252;2023-09-08T02:28:16;17.20;99.90
14370;DHT22;7268;50.792;0.252;2023-09-08T02:30:43;17.10;99.90
14370;DHT22;7268;50.792;0.252;2023-09-08T02:33:10;17.10;99.90
14370;DHT22;7268;50.792;0.252;2023-09-08T02:35:37;17.10;99.90
14370;DHT22;7268;50.792;0.252;2023-09-08T02:38:05;17.10;99.90
14370;DHT22;7268;50.792;0.252;2023-09-08T02:40:33;17.10;99.90
14370;DHT22;7268;50.792;0.252;2023-09-08T02:43:02;17.20;99.90
14370;DHT22;7268;50.792;0.252;2023-09-08T02:45:30;17.20;99.90
14370;DHT22;7268;50.792;0.252;2023-09-08T02:48:00;17.10;99.90
14370;DHT22;7268;50.792;0.252;2023-09-08T02:50:26;17.00;99.90
14370;DHT22;7268;50.792;0.252;2023-09-08T02:52:53;17.00;99.90
14370;DHT22;7268;50.792;0.252;2023-09-08T02:55:20;17.00;99.90
14370;DHT22;7268;50.792;0.252;2023-09-08T02:57:47;17.10;99.90
14370;DHT22;7268;50.792;0.252;2023-09-08T03:00:14;17.00;99.90
14370;DHT22;7268;50.792;0.252;2023-09-08T03:02:41;17.00;99.90
14370;DHT22;7268;50.792;0.252;2023-09-08T03:05:08;17.00;99.90
14370;DHT22;7268;50.792;0.252;2023-09-08T03:07:35;17.00;99.90
14370;DHT22;7268;50.792;0.252;2023-09-08T03:10:04;17.00;99.90
14370;DHT22;7268;50.792;0.252;2023-09-08T03:12:31;17.10;99.90
14370;DHT22;7268;50.792;0.252;2023-09-08T03:14:58;17.20;99.90
14370;DHT22;7268;50.792;0.252;2023-09-08T03:17:25;17.20;99.90
14370;DHT22;7268;50.792;0.252;2023-09-08T03:19:52;17.20;99.90
14370;DHT22;7268;50.792;0.252;2023-09-08T03:22:19;17.10;99.90
14370;DHT22;7268;50.792;0.252;2023-09-08T03:24:45;17.10;99.90
14370;DHT22;7268;50.792;0.252;2023-09-08T03:27:12;17.10;99.90
14370;DHT22;7268;50.792;0.252;2023-09-08T03:29:39;17.10;99.90
14370;DHT22;7268;50.792;0.252;2023-09-08T03:32:06;17.10;99.90
14370;DHT22;7268;50.792;0.252;2023-09-08T03:34:33;17.10;99.90
14370;DHT22;7268;50.792;0.252;2023-09-08T03:37:00;17.20;99.90
14370;DHT22;7268;50.792;0.252;2023-09-08T03:39:27;17.10;99.90
14370;DHT22;7268;50.792;0.252;2023-09-08T03:41:54;17.20;99.90
14370;DHT22;7268;50.792;0.252;2023-09-08T03:44:21;17.20;99.90
14370;DHT22;7268;50.792;0.252;2023-09-08T03:46:48;17.20;99.90
14370;DHT22;7268;50.792;0.252;2023-09-08T03:49:15;17.30;99.90
14370;DHT22;7268;50.792;0.252;2023-09-08T03:51:41;17.30;99.90
14370;DHT22;7268;50.792;0.252;2023-09-08T03:54:08;17.30;99.90
14370;DHT22;7268;50.792;0.252;2023-09-08T03:56:35;17.30;99.90
14370;DHT22;7268;50.792;0.252;2023-09-08T03:59:02;17.30;99.90
14370;DHT22;7268;50.792;0.252;2023-09-08T04:01:29;17.40;99.90
14370;DHT22;7268;50.792;0.252;2023-09-08T04:03:56;17.40;99.90
14370;DHT22;7268;50.792;0.252;2023-09-08T04:06:23;17.40;99.90
14370;DHT22;7268;50.792;0.252;2023-09-08T04:08:51;17.50;99.90
14370;DHT22;7268;50.792;0.252;2023-09-08T04:11:18;17.40;99.90
14370;DHT22;7268;50.792;0.252;2023-09-08T04:13:44;17.40;99.90
14370;DHT22;7268;50.792;0.252;2023-09-08T04:16:11;17.30;99.90
14370;DHT22;7268;50.792;0.252;2023-09-08T04:18:38;17.30;99.90
14370;DHT22;7268;50.792;0.252;2023-09-08T04:21:06;17.20;99.90
14370;DHT22;7268;50.792;0.252;2023-09-08T04:23:34;17.00;99.90
14370;DHT22;7268;50.792;0.252;2023-09-08T04:26:02;17.00;99.90
14370;DHT22;7268;50.792;0.252;2023-09-08T04:28:29;17.00;99.90
14370;DHT22;7268;50.792;0.252;2023-09-08T04:30:55;17.00;99.90
14370;DHT22;7268;50.792;0.252;2023-09-08T04:33:23;17.10;99.90
14370;DHT22;7268;50.792;0.252;2023-09-08T04:35:51;17.00;99.90
14370;DHT22;7268;50.792;0.252;2023-09-08T04:38:17;17.00;99.90
14370;DHT22;7268;50.792;0.252;2023-09-08T04:40:47;16.90;99.90
14370;DHT22;7268;50.792;0.252;2023-09-08T04:43:14;16.80;99.90
14370;DHT22;7268;50.792;0.252;2023-09-08T04:45:41;16.80;99.90
14370;DHT22;7268;50.792;0.252;2023-09-08T04:48:08;16.80;99.90
14370;DHT22;7268;50.792;0.252;2023-09-08T04:50:35;16.80;99.90
14370;DHT22;7268;50.792;0.252;2023-09-08T04:53:02;16.80;99.90
14370;DHT22;7268;50.792;0.252;2023-09-08T04:55:29;16.80;99.90
14370;DHT22;7268;50.792;0.252;2023-09-08T04:57:56;16.90;99.90
14370;DHT22;7268;50.792;0.252;2023-09-08T05:00:23;16.80;99.90
14370;DHT22;7268;50.792;0.252;2023-09-08T05:02:49;16.70;99.90
14370;DHT22;7268;50.792;0.252;2023-09-08T05:05:16;16.60;99.90
14370;DHT22;7268;50.792;0.252;2023-09-08T05:07:43;16.60;99.90
14370;DHT22;7268;50.792;0.252;2023-09-08T05:10:12;16.60;99.90
14370;DHT22;7268;50.792;0.252;2023-09-08T05:12:38;16.70;99.90
14370;DHT22;7268;50.792;0.252;2023-09-08T05:15:06;16.70;99.90
14370;DHT22;7268;50.792;0.252;2023-09-08T05:17:37;16.70;99.90
14370;DHT22;7268;50.792;0.252;2023-09-08T05:20:04;16.70;99.90
14370;DHT22;7268;50.792;0.252;2023-09-08T05:22:31;16.60;99.90
14370;DHT22;7268;50.792;0.252;2023-09-08T05:24:58;16.70;99.90
14370;DHT22;7268;50.792;0.252;2023-09-08T05:27:25;16.70;99.90
14370;DHT22;7268;50.792;0.252;2023-09-08T05:29:52;16.70;99.90
14370;DHT22;7268;50.792;0.252;2023-09-08T05:32:19;16.70;99.90
14370;DHT22;7268;50.792;0.252;2023-09-08T05:34:46;16.80;99.90
14370;DHT22;7268;50.792;0.252;2023-09-08T05:37:12;16.90;99.90
14370;DHT22;7268;50.792;0.252;2023-09-08T05:39:39;17.00;99.90
14370;DHT22;7268;50.792;0.252;2023-09-08T05:42:07;17.10;99.90
14370;DHT22;7268;50.792;0.252;2023-09-08T05:44:34;17.30;99.90
14370;DHT22;7268;50.792;0.252;2023-09-08T05:47:02;17.30;99.90
14370;DHT22;7268;50.792;0.252;2023-09-08T05:49:29;17.40;99.90
14370;DHT22;7268;50.792;0.252;2023-09-08T05:51:56;17.50;99.90
14370;DHT22;7268;50.792;0.252;2023-09-08T05:54:23;17.60;99.90
14370;DHT22;7268;50.792;0.252;2023-09-08T05:56:50;17.70;99.90
14370;DHT22;7268;50.792;0.252;2023-09-08T05:59:17;17.80;99.90
14370;DHT22;7268;50.792;0.252;2023-09-08T06:01:44;18.00;99.90
14370;DHT22;7268;50.792;0.252;2023-09-08T06:04:11;18.00;99.90
14370;DHT22;7268;50.792;0.252;2023-09-08T06:06:38;18.40;99.90
14370;DHT22;7268;50.792;0.252;2023-09-08T06:09:05;19.00;99.90
14370;DHT22;7268;50.792;0.252;2023-09-08T06:11:34;19.60;99.90
14370;DHT22;7268;50.792;0.252;2023-09-08T06:14:01;19.90;99.90
14370;DHT22;7268;50.792;0.252;2023-09-08T06:16:28;19.90;99.90
14370;DHT22;7268;50.792;0.252;2023-09-08T06:18:54;19.80;99.90
14370;DHT22;7268;50.792;0.252;2023-09-08T06:21:21;19.80;99.90
14370;DHT22;7268;50.792;0.252;2023-09-08T06:23:48;19.70;99.90
14370;DHT22;7268;50.792;0.252;2023-09-08T06:26:16;19.60;99.90
14370;DHT22;7268;50.792;0.252;2023-09-08T06:28:42;19.60;99.90
14370;DHT22;7268;50.792;0.252;2023-09-08T06:31:10;19.60;99.90
14370;DHT22;7268;50.792;0.252;2023-09-08T06:33:37;19.60;99.90
14370;DHT22;7268;50.792;0.252;2023-09-08T06:36:04;19.70;99.90
14370;DHT22;7268;50.792;0.252;2023-09-08T06:38:31;19.70;99.90
14370;DHT22;7268;50.792;0.252;2023-09-08T06:40:59;19.60;99.90
14370;DHT22;7268;50.792;0.252;2023-09-08T06:43:27;19.80;99.90
14370;DHT22;7268;50.792;0.252;2023-09-08T06:45:54;20.10;99.90
14370;DHT22;7268;50.792;0.252;2023-09-08T06:48:21;20.30;99.90
14370;DHT22;7268;50.792;0.252;2023-09-08T06:50:48;20.70;99.90
14370;DHT22;7268;50.792;0.252;2023-09-08T06:53:15;21.10;99.90
14370;DHT22;7268;50.792;0.252;2023-09-08T06:55:42;21.40;99.90
14370;DHT22;7268;50.792;0.252;2023-09-08T06:58:11;21.40;99.90
14370;DHT22;7268;50.792;0.252;2023-09-08T07:00:38;21.50;99.90
14370;DHT22;7268;50.792;0.252;2023-09-08T07:03:06;22.00;99.90
14370;DHT22;7268;50.792;0.252;2023-09-08T07:05:35;22.40;99.80
14370;DHT22;7268;50.792;0.252;2023-09-08T07:08:02;22.60;99.30
14370;DHT22;7268;50.792;0.252;2023-09-08T07:10:29;23.40;99.30
14370;DHT22;7268;50.792;0.252;2023-09-08T07:12:56;23.90;97.00
14370;DHT22;7268;50.792;0.252;2023-09-08T07:15:23;24.50;95.60
14370;DHT22;7268;50.792;0.252;2023-09-08T07:17:50;25.90;94.00
14370;DHT22;7268;50.792;0.252;2023-09-08T07:20:17;27.50;91.80
14370;DHT22;7268;50.792;0.252;2023-09-08T07:22:44;28.50;83.50
14370;DHT22;7268;50.792;0.252;2023-09-08T07:25:11;28.30;81.50
14370;DHT22;7268;50.792;0.252;2023-09-08T07:27:38;28.70;81.40
14370;DHT22;7268;50.792;0.252;2023-09-08T07:30:05;29.60;77.70
14370;DHT22;7268;50.792;0.252;2023-09-08T07:32:33;30.90;73.70
14370;DHT22;7268;50.792;0.252;2023-09-08T07:34:59;32.10;69.40
14370;DHT22;7268;50.792;0.252;2023-09-08T07:37:26;33.30;64.40
14370;DHT22;7268;50.792;0.252;2023-09-08T07:39:53;34.40;60.50
14370;DHT22;7268;50.792;0.252;2023-09-08T07:42:20;34.60;58.80
14370;DHT22;7268;50.792;0.252;2023-09-08T07:44:47;33.30;60.50
14370;DHT22;7268;50.792;0.252;2023-09-08T07:47:14;32.20;64.80
14370;DHT22;7268;50.792;0.252;2023-09-08T07:49:46;31.80;67.20
14370;DHT22;7268;50.792;0.252;2023-09-08T07:52:16;31.80;67.70
14370;DHT22;7268;50.792;0.252;2023-09-08T07:54:43;31.10;68.70
14370;DHT22;7268;50.792;0.252;2023-09-08T07:57:09;30.40;70.00
14370;DHT22;7268;50.792;0.252;2023-09-08T07:59:36;29.70;72.60
14370;DHT22;7268;50.792;0.252;2023-09-08T08:02:03;28.90;74.30
14370;DHT22;7268;50.792;0.252;2023-09-08T08:04:30;28.60;77.40
14370;DHT22;7268;50.792;0.252;2023-09-08T08:06:57;28.80;78.50
14370;DHT22;7268;50.792;0.252;2023-09-08T08:09:24;28.70;78.70
14370;DHT22;7268;50.792;0.252;2023-09-08T08:11:51;28.80;77.90
14370;DHT22;7268;50.792;0.252;2023-09-08T08:14:18;28.40;77.70
14370;DHT22;7268;50.792;0.252;2023-09-08T08:16:45;28.00;79.20
14370;DHT22;7268;50.792;0.252;2023-09-08T08:19:12;27.50;81.20
14370;DHT22;7268;50.792;0.252;2023-09-08T08:21:39;27.50;81.90
14370;DHT22;7268;50.792;0.252;2023-09-08T08:24:08;28.00;79.50
14370;DHT22;7268;50.792;0.252;2023-09-08T08:26:35;28.60;78.60
14370;DHT22;7268;50.792;0.252;2023-09-08T08:29:02;29.20;77.00
14370;DHT22;7268;50.792;0.252;2023-09-08T08:31:30;30.20;75.20
14370;DHT22;7268;50.792;0.252;2023-09-08T08:33:57;31.10;73.20
14370;DHT22;7268;50.792;0.252;2023-09-08T08:36:24;31.50;70.20
14370;DHT22;7268;50.792;0.252;2023-09-08T08:38:50;31.50;70.20
14370;DHT22;7268;50.792;0.252;2023-09-08T08:41:17;31.10;71.80
14370;DHT22;7268;50.792;0.252;2023-09-08T08:43:44;31.10;70.40
14370;DHT22;7268;50.792;0.252;2023-09-08T08:46:13;30.90;70.90
14370;DHT22;7268;50.792;0.252;2023-09-08T08:48:40;30.10;71.50
14370;DHT22;7268;50.792;0.252;2023-09-08T08:51:10;29.70;73.80
14370;DHT22;7268;50.792;0.252;2023-09-08T08:53:39;29.40;74.40
14370;DHT22;7268;50.792;0.252;2023-09-08T08:56:07;29.70;74.60
14370;DHT22;7268;50.792;0.252;2023-09-08T08:58:37;30.10;73.50
14370;DHT22;7268;50.792;0.252;2023-09-08T09:01:06;30.70;71.60
14370;DHT22;7268;50.792;0.252;2023-09-08T09:03:35;31.90;69.30
14370;DHT22;7268;50.792;0.252;2023-09-08T09:06:04;33.10;65.60
14370;DHT22;7268;50.792;0.252;2023-09-08T09:08:32;34.10;60.60
14370;DHT22;7268;50.792;0.252;2023-09-08T09:10:59;33.20;61.10
14370;DHT22;7268;50.792;0.252;2023-09-08T09:13:26;32.90;64.30
14370;DHT22;7268;50.792;0.252;2023-09-08T09:16:00;33.10;62.80
14370;DHT22;7268;50.792;0.252;2023-09-08T09:18:30;34.50;60.20
14370;DHT22;7268;50.792;0.252;2023-09-08T09:21:01;36.20;57.80
14370;DHT22;7268;50.792;0.252;2023-09-08T09:23:32;37.00;52.80
14370;DHT22;7268;50.792;0.252;2023-09-08T09:26:02;37.10;49.30
14370;DHT22;7268;50.792;0.252;2023-09-08T09:28:30;37.60;50.00
14370;DHT22;7268;50.792;0.252;2023-09-08T09:30:58;38.40;49.30
14370;DHT22;7268;50.792;0.252;2023-09-08T09:33:26;38.70;47.60
14370;DHT22;7268;50.792;0.252;2023-09-08T09:35:54;39.00;47.10
14370;DHT22;7268;50.792;0.252;2023-09-08T09:38:21;39.90;46.20
14370;DHT22;7268;50.792;0.252;2023-09-08T09:40:48;40.40;46.70
14370;DHT22;7268;50.792;0.252;2023-09-08T09:43:16;40.50;46.00
14370;DHT22;7268;50.792;0.252;2023-09-08T09:45:44;39.30;46.00
14370;DHT22;7268;50.792;0.252;2023-09-08T09:48:11;37.40;48.00
14370;DHT22;7268;50.792;0.252;2023-09-08T09:50:41;37.00;50.00
14370;DHT22;7268;50.792;0.252;2023-09-08T09:53:10;36.10;52.10
14370;DHT22;7268;50.792;0.252;2023-09-08T09:55:43;36.10;51.70
14370;DHT22;7268;50.792;0.252;2023-09-08T09:58:10;36.70;51.30
14370;DHT22;7268;50.792;0.252;2023-09-08T10:00:38;37.00;52.50
14370;DHT22;7268;50.792;0.252;2023-09-08T10:03:07;36.70;51.70
14370;DHT22;7268;50.792;0.252;2023-09-08T10:05:36;37.40;51.40
14370;DHT22;7268;50.792;0.252;2023-09-08T10:08:03;37.20;50.20
14370;DHT22;7268;50.792;0.252;2023-09-08T10:10:32;37.80;48.30
14370;DHT22;7268;50.792;0.252;2023-09-08T10:13:06;38.10;49.40
14370;DHT22;7268;50.792;0.252;2023-09-08T10:15:33;37.50;47.60
14370;DHT22;7268;50.792;0.252;2023-09-08T10:18:04;38.10;47.10
14370;DHT22;7268;50.792;0.252;2023-09-08T10:20:33;38.60;47.50
14370;DHT22;7268;50.792;0.252;2023-09-08T10:23:29;38.80;46.70
14370;DHT22;7268;50.792;0.252;2023-09-08T10:26:02;38.40;46.40
14370;DHT22;7268;50.792;0.252;2023-09-08T10:28:32;38.30;46.80
14370;DHT22;7268;50.792;0.252;2023-09-08T10:31:01;38.10;47.10
14370;DHT22;7268;50.792;0.252;2023-09-08T10:33:30;38.30;47.10
14370;DHT22;7268;50.792;0.252;2023-09-08T10:35:59;38.60;46.90
14370;DHT22;7268;50.792;0.252;2023-09-08T10:38:33;38.40;46.70
14370;DHT22;7268;50.792;0.252;2023-09-08T10:43:44;38.10;47.20
14370;DHT22;7268;50.792;0.252;2023-09-08T10:46:22;38.00;47.00
14370;DHT22;7268;50.792;0.252;2023-09-08T10:48:49;37.40;47.30
14370;DHT22;7268;50.792;0.252;2023-09-08T10:51:19;38.00;48.00
14370;DHT22;7268;50.792;0.252;2023-09-08T10:53:48;37.70;49.30
14370;DHT22;7268;50.792;0.252;2023-09-08T10:56:16;37.10;49.10
14370;DHT22;7268;50.792;0.252;2023-09-08T10:58:50;37.30;49.10
14370;DHT22;7268;50.792;0.252;2023-09-08T11:01:19;36.40;50.40
14370;DHT22;7268;50.792;0.252;2023-09-08T11:03:49;36.80;49.90
14370;DHT22;7268;50.792;0.252;2023-09-08T11:06:19;37.10;49.90
14370;DHT22;7268;50.792;0.252;2023-09-08T11:08:47;37.10;48.30
14370;DHT22;7268;50.792;0.252;2023-09-08T11:11:16;37.30;49.40
14370;DHT22;7268;50.792;0.252;2023-09-08T11:13:43;37.30;48.20
14370;DHT22;7268;50.792;0.252;2023-09-08T11:16:14;36.90;49.20
14370;DHT22;7268;50.792;0.252;2023-09-08T11:18:42;37.20;48.60
14370;DHT22;7268;50.792;0.252;2023-09-08T11:21:10;36.80;48.50
14370;DHT22;7268;50.792;0.252;2023-09-08T11:23:38;37.30;48.50
14370;DHT22;7268;50.792;0.252;2023-09-08T11:26:06;37.60;47.70
14370;DHT22;7268;50.792;0.252;2023-09-08T11:28:36;37.70;48.60
14370;DHT22;7268;50.792;0.252;2023-09-08T11:31:04;38.70;47.90
14370;DHT22;7268;50.792;0.252;2023-09-08T11:33:34;38.20;47.40
14370;DHT22;7268;50.792;0.252;2023-09-08T11:36:12;37.70;47.50
14370;DHT22;7268;50.792;0.252;2023-09-08T11:38:43;37.50;48.20
14370;DHT22;7268;50.792;0.252;2023-09-08T11:41:10;37.20;48.50
14370;DHT22;7268;50.792;0.252;2023-09-08T11:43:37;37.00;48.50
14370;DHT22;7268;50.792;0.252;2023-09-08T11:46:06;37.20;48.90
14370;DHT22;7268;50.792;0.252;2023-09-08T11:48:33;36.60;50.40
14370;DHT22;7268;50.792;0.252;2023-09-08T11:51:00;36.20;49.20
14370;DHT22;7268;50.792;0.252;2023-09-08T11:53:27;37.10;50.20
14370;DHT22;7268;50.792;0.252;2023-09-08T11:55:54;37.20;48.60
14370;DHT22;7268;50.792;0.252;2023-09-08T11:58:22;36.80;50.00
14370;DHT22;7268;50.792;0.252;2023-09-08T12:00:49;36.60;50.30
14370;DHT22;7268;50.792;0.252;2023-09-08T12:03:16;36.20;51.00
14370;DHT22;7268;50.792;0.252;2023-09-08T12:05:44;36.00;51.80
14370;DHT22;7268;50.792;0.252;2023-09-08T12:08:17;35.80;50.80
14370;DHT22;7268;50.792;0.252;2023-09-08T12:10:44;35.90;51.60
14370;DHT22;7268;50.792;0.252;2023-09-08T12:13:11;35.90;51.10
14370;DHT22;7268;50.792;0.252;2023-09-08T12:15:42;36.00;50.80
14370;DHT22;7268;50.792;0.252;2023-09-08T12:18:12;35.20;51.50
14370;DHT22;7268;50.792;0.252;2023-09-08T12:20:42;34.50;53.00
14370;DHT22;7268;50.792;0.252;2023-09-08T12:23:20;34.40;53.80
14370;DHT22;7268;50.792;0.252;2023-09-08T12:25:49;34.80;53.30
14370;DHT22;7268;50.792;0.252;2023-09-08T12:28:18;35.50;54.10
14370;DHT22;7268;50.792;0.252;2023-09-08T12:30:46;35.10;53.10
14370;DHT22;7268;50.792;0.252;2023-09-08T12:33:14;35.50;52.40
14370;DHT22;7268;50.792;0.252;2023-09-08T12:35:47;35.20;52.50
14370;DHT22;7268;50.792;0.252;2023-09-08T12:38:20;35.00;53.00
14370;DHT22;7268;50.792;0.252;2023-09-08T12:40:47;34.40;53.20
14370;DHT22;7268;50.792;0.252;2023-09-08T12:43:14;34.60;53.50
14370;DHT22;7268;50.792;0.252;2023-09-08T12:45:53;34.30;53.30
14370;DHT22;7268;50.792;0.252;2023-09-08T12:48:20;34.10;53.70
14370;DHT22;7268;50.792;0.252;2023-09-08T12:50:48;33.90;54.90
14370;DHT22;7268;50.792;0.252;2023-09-08T12:53:16;33.60;53.70
14370;DHT22;7268;50.792;0.252;2023-09-08T12:55:47;33.10;56.50
14370;DHT22;7268;50.792;0.252;2023-09-08T12:58:15;32.50;57.20
14370;DHT22;7268;50.792;0.252;2023-09-08T13:00:43;32.40;56.70
14370;DHT22;7268;50.792;0.252;2023-09-08T13:03:10;32.50;56.50
14370;DHT22;7268;50.792;0.252;2023-09-08T13:05:37;32.20;56.70
14370;DHT22;7268;50.792;0.252;2023-09-08T13:08:06;31.90;56.70
14370;DHT22;7268;50.792;0.252;2023-09-08T13:10:32;32.30;58.40
14370;DHT22;7268;50.792;0.252;2023-09-08T13:13:00;32.30;56.40
14370;DHT22;7268;50.792;0.252;2023-09-08T13:15:27;32.40;57.30
14370;DHT22;7268;50.792;0.252;2023-09-08T13:17:54;32.50;57.30
14370;DHT22;7268;50.792;0.252;2023-09-08T13:20:21;32.70;57.30
14370;DHT22;7268;50.792;0.252;2023-09-08T13:22:48;32.80;58.30
14370;DHT22;7268;50.792;0.252;2023-09-08T13:25:15;32.70;58.20
14370;DHT22;7268;50.792;0.252;2023-09-08T13:27:42;32.70;57.90
14370;DHT22;7268;50.792;0.252;2023-09-08T13:30:09;32.70;58.10
14370;DHT22;7268;50.792;0.252;2023-09-08T13:32:37;32.60;56.90
14370;DHT22;7268;50.792;0.252;2023-09-08T13:35:05;32.50;57.80
14370;DHT22;7268;50.792;0.252;2023-09-08T13:37:32;32.40;57.30
14370;DHT22;7268;50.792;0.252;2023-09-08T13:40:02;32.50;57.40
14370;DHT22;7268;50.792;0.252;2023-09-08T13:42:31;32.20;57.90
14370;DHT22;7268;50.792;0.252;2023-09-08T13:44:58;32.30;57.70
14370;DHT22;7268;50.792;0.252;2023-09-08T13:47:26;31.90;58.20
14370;DHT22;7268;50.792;0.252;2023-09-08T13:49:53;31.50;59.40
14370;DHT22;7268;50.792;0.252;2023-09-08T13:52:23;31.60;59.40
14370;DHT22;7268;50.792;0.252;2023-09-08T13:54:56;32.00;61.00
14370;DHT22;7268;50.792;0.252;2023-09-08T13:57:25;32.40;58.10
14370;DHT22;7268;50.792;0.252;2023-09-08T13:59:55;32.20;58.80
14370;DHT22;7268;50.792;0.252;2023-09-08T14:02:23;32.00;59.40
14370;DHT22;7268;50.792;0.252;2023-09-08T14:04:53;31.70;59.60
14370;DHT22;7268;50.792;0.252;2023-09-08T14:07:24;31.80;58.80
14370;DHT22;7268;50.792;0.252;2023-09-08T14:09:58;31.50;60.10
14370;DHT22;7268;50.792;0.252;2023-09-08T14:12:45;31.20;59.50
14370;DHT22;7268;50.792;0.252;2023-09-08T14:15:12;31.10;60.30
14370;DHT22;7268;50.792;0.252;2023-09-08T14:17:42;31.00;59.80
14370;DHT22;7268;50.792;0.252;2023-09-08T14:20:09;30.70;60.10
14370;DHT22;7268;50.792;0.252;2023-09-08T14:22:36;30.80;60.80
14370;DHT22;7268;50.792;0.252;2023-09-08T14:25:03;30.40;60.40
14370;DHT22;7268;50.792;0.252;2023-09-08T14:27:30;30.30;61.70
14370;DHT22;7268;50.792;0.252;2023-09-08T14:29:57;30.10;61.40
14370;DHT22;7268;50.792;0.252;2023-09-08T14:32:23;30.20;62.50
14370;DHT22;7268;50.792;0.252;2023-09-08T14:34:50;30.10;62.30
14370;DHT22;7268;50.792;0.252;2023-09-08T14:37:17;30.00;61.10
14370;DHT22;7268;50.792;0.252;2023-09-08T14:39:44;30.20;62.40
14370;DHT22;7268;50.792;0.252;2023-09-08T14:42:12;30.20;64.20
14370;DHT22;7268;50.792;0.252;2023-09-08T14:44:40;30.20;64.50
14370;DHT22;7268;50.792;0.252;2023-09-08T14:47:07;30.00;64.90
14370;DHT22;7268;50.792;0.252;2023-09-08T14:49:35;29.90;66.30
14370;DHT22;7268;50.792;0.252;2023-09-08T14:52:02;29.80;65.10
14370;DHT22;7268;50.792;0.252;2023-09-08T14:54:29;29.80;63.20
14370;DHT22;7268;50.792;0.252;2023-09-08T14:56:56;29.60;64.30
14370;DHT22;7268;50.792;0.252;2023-09-08T14:59:23;29.60;64.00
14370;DHT22;7268;50.792;0.252;2023-09-08T15:01:50;29.60;66.90
14370;DHT22;7268;50.792;0.252;2023-09-08T15:04:18;29.70;66.60
14370;DHT22;7268;50.792;0.252;2023-09-08T15:06:45;29.60;65.00
14370;DHT22;7268;50.792;0.252;2023-09-08T15:09:12;29.40;65.00
14370;DHT22;7268;50.792;0.252;2023-09-08T15:11:39;29.30;66.90
14370;DHT22;7268;50.792;0.252;2023-09-08T15:14:06;29.20;64.60
14370;DHT22;7268;50.792;0.252;2023-09-08T15:16:33;29.20;65.10
14370;DHT22;7268;50.792;0.252;2023-09-08T15:19:00;29.20;65.80
14370;DHT22;7268;50.792;0.252;2023-09-08T15:21:26;29.30;66.40
14370;DHT22;7268;50.792;0.252;2023-09-08T15:23:56;29.40;65.00
14370;DHT22;7268;50.792;0.252;2023-09-08T15:26:23;29.30;63.90
14370;DHT22;7268;50.792;0.252;2023-09-08T15:28:50;29.40;65.50
14370;DHT22;7268;50.792;0.252;2023-09-08T15:31:17;29.50;64.60
14370;DHT22;7268;50.792;0.252;2023-09-08T15:33:44;29.60;64.60
14370;DHT22;7268;50.792;0.252;2023-09-08T15:36:12;29.60;63.00
14370;DHT22;7268;50.792;0.252;2023-09-08T15:38:39;29.30;63.90
14370;DHT22;7268;50.792;0.252;2023-09-08T15:43:46;29.10;65.20
14370;DHT22;7268;50.792;0.252;2023-09-08T15:46:14;29.10;66.40
14370;DHT22;7268;50.792;0.252;2023-09-08T15:48:41;29.00;65.50
14370;DHT22;7268;50.792;0.252;2023-09-08T15:51:08;28.90;65.30
14370;DHT22;7268;50.792;0.252;2023-09-08T15:53:37;28.80;65.10
14370;DHT22;7268;50.792;0.252;2023-09-08T15:56:05;28.80;65.60
14370;DHT22;7268;50.792;0.252;2023-09-08T15:58:33;28.60;68.80